createdAt,value
2023-02-11T00:00:42.280Z,8.46
2023-02-11T00:03:09.729Z,8.42
2023-02-11T00:05:36.516Z,8.40
2023-02-11T00:08:03.247Z,8.39
2023-02-11T00:10:29.847Z,8.39
2023-02-11T00:12:56.628Z,8.42
2023-02-11T00:15:23.393Z,8.39
2023-02-11T00:17:50.039Z,8.42
2023-02-11T00:20:16.768Z,8.39
2023-02-11T00:22:43.777Z,8.39
2023-02-11T00:25:10.535Z,8.36
2023-02-11T00:27:37.561Z,8.29
2023-02-11T00:30:05.442Z,8.28
2023-02-11T00:32:32.796Z,8.24
2023-02-11T00:34:59.386Z,8.16
2023-02-11T00:37:26.071Z,8.13
2023-02-11T00:39:52.628Z,8.09
2023-02-11T00:42:19.328Z,8.09
2023-02-11T00:44:46.006Z,8.06
2023-02-11T00:47:12.725Z,8.03
2023-02-11T00:49:40.472Z,7.95
2023-02-11T00:52:07.244Z,7.92
2023-02-11T00:54:33.872Z,7.92
2023-02-11T00:57:00.541Z,7.88
2023-02-11T00:59:27.344Z,7.85
2023-02-11T01:01:53.993Z,7.85
2023-02-11T01:04:20.557Z,7.84
2023-02-11T01:06:48.412Z,7.80
2023-02-11T01:09:15.034Z,7.73
2023-02-11T01:11:41.632Z,7.63
2023-02-11T01:14:08.426Z,7.51
2023-02-11T01:16:35.257Z,7.49
2023-02-11T01:19:01.884Z,7.51
2023-02-11T01:21:28.514Z,7.56
2023-02-11T01:23:55.091Z,7.60
2023-02-11T01:26:21.748Z,7.59
2023-02-11T01:28:48.399Z,7.54
2023-02-11T01:31:15.456Z,7.56
2023-02-11T01:33:42.215Z,7.50
2023-02-11T01:36:09.528Z,7.51
2023-02-11T01:38:36.785Z,7.49
2023-02-11T01:41:07.084Z,7.44
2023-02-11T01:43:42.922Z,7.39
2023-02-11T01:46:33.255Z,7.39
2023-02-11T01:49:03.042Z,7.44
2023-02-11T01:52:05.623Z,7.47
2023-02-11T01:54:54.845Z,7.49
2023-02-11T01:57:26.109Z,7.50
2023-02-11T02:00:08.496Z,7.46
2023-02-11T02:03:07.826Z,7.40
2023-02-11T02:05:51.996Z,7.44
2023-02-11T02:08:43.046Z,7.43
2023-02-11T02:11:10.357Z,7.37
2023-02-11T02:13:37.376Z,7.33
2023-02-11T02:16:13.266Z,7.32
2023-02-11T02:18:51.627Z,7.33
2023-02-11T02:21:37.046Z,7.33
2023-02-11T02:24:03.588Z,7.36
2023-02-11T02:26:45.419Z,7.39
2023-02-11T02:29:17.901Z,7.42
2023-02-11T02:32:18.265Z,7.32
2023-02-11T02:34:57.073Z,7.26
2023-02-11T02:37:49.743Z,7.25
2023-02-11T02:40:23.931Z,7.22
2023-02-11T02:42:51.610Z,7.20
2023-02-11T02:45:19.347Z,7.18
2023-02-11T02:47:46.133Z,7.19
2023-02-11T02:50:17.552Z,7.13
2023-02-11T02:53:03.961Z,7.13
2023-02-11T02:56:05.241Z,7.15
2023-02-11T02:59:02.453Z,7.13
2023-02-11T03:01:33.267Z,7.13
2023-02-11T03:04:40.977Z,7.13
2023-02-11T03:07:21.301Z,7.13
2023-02-11T03:10:03.881Z,7.09
2023-02-11T03:12:32.617Z,7.09
2023-02-11T03:15:01.511Z,7.08
2023-02-11T03:17:29.660Z,7.05
2023-02-11T03:19:58.929Z,7.02
2023-02-11T03:22:30.497Z,6.99
2023-02-11T03:24:57.280Z,6.98
2023-02-11T03:27:30.597Z,6.98
2023-02-11T03:30:06.309Z,6.99
2023-02-11T03:32:37.902Z,6.99
2023-02-11T03:35:32.897Z,6.99
2023-02-11T03:38:07.423Z,6.94
2023-02-11T03:40:39.409Z,6.94
2023-02-11T03:43:17.352Z,6.95
2023-02-11T03:45:46.666Z,6.96
2023-02-11T03:48:22.231Z,6.98
2023-02-11T03:50:51.301Z,6.89
2023-02-11T03:53:19.201Z,6.87
2023-02-11T03:55:48.655Z,6.83
2023-02-11T03:58:15.523Z,6.80
2023-02-11T04:00:43.756Z,6.67
2023-02-11T04:03:11.981Z,6.63
2023-02-11T04:05:38.912Z,6.54
2023-02-11T04:08:06.078Z,6.54
2023-02-11T04:10:32.763Z,6.56
2023-02-11T04:12:59.699Z,6.51
2023-02-11T04:15:26.487Z,6.49
2023-02-11T04:17:53.127Z,6.39
2023-02-11T04:20:19.884Z,6.26
2023-02-11T04:22:46.574Z,6.19
2023-02-11T04:25:13.216Z,6.16
2023-02-11T04:27:39.829Z,6.11
2023-02-11T04:30:08.797Z,6.08
2023-02-11T04:32:35.380Z,6.05
2023-02-11T04:35:02.952Z,6.03
2023-02-11T04:37:29.939Z,6.01
2023-02-11T04:39:56.667Z,5.98
2023-02-11T04:42:23.286Z,5.97
2023-02-11T04:44:49.929Z,5.91
2023-02-11T04:47:16.607Z,5.90
2023-02-11T04:49:43.227Z,5.85
2023-02-11T04:52:09.891Z,5.82
2023-02-11T04:54:36.514Z,5.78
2023-02-11T04:57:03.194Z,5.74
2023-02-11T04:59:29.928Z,5.74
2023-02-11T05:01:56.959Z,5.75
2023-02-11T05:04:23.769Z,5.79
2023-02-11T05:06:50.506Z,5.82
2023-02-11T05:09:17.822Z,5.88
2023-02-11T05:11:44.408Z,5.87
2023-02-11T05:14:11.112Z,5.85
2023-02-11T05:16:37.851Z,5.82
2023-02-11T05:19:04.543Z,5.85
2023-02-11T05:21:31.236Z,5.91
2023-02-11T05:23:57.916Z,5.91
2023-02-11T05:26:24.595Z,5.85
2023-02-11T05:28:51.212Z,5.85
2023-02-11T05:31:18.536Z,5.87
2023-02-11T05:33:45.301Z,5.88
2023-02-11T05:36:13.500Z,5.81
2023-02-11T05:38:40.806Z,5.81
2023-02-11T05:41:07.418Z,5.85
2023-02-11T05:43:37.399Z,5.87
2023-02-11T05:46:05.218Z,5.92
2023-02-11T05:48:32.283Z,5.95
2023-02-11T05:50:59.090Z,6.03
2023-02-11T05:53:25.821Z,6.03
2023-02-11T05:55:52.729Z,6.02
2023-02-11T05:58:19.589Z,6.02
2023-02-11T06:00:46.281Z,5.97
2023-02-11T06:03:13.003Z,5.92
2023-02-11T06:05:39.773Z,5.90
2023-02-11T06:08:06.374Z,5.90
2023-02-11T06:10:33.072Z,5.88
2023-02-11T06:12:59.678Z,5.85
2023-02-11T06:15:26.302Z,5.81
2023-02-11T06:17:52.986Z,5.78
2023-02-11T06:20:20.012Z,5.75
2023-02-11T06:22:46.999Z,5.74
2023-02-11T06:25:15.028Z,5.74
2023-02-11T06:27:41.605Z,5.78
2023-02-11T06:30:09.008Z,5.79
2023-02-11T06:32:43.930Z,5.81
2023-02-11T06:35:12.520Z,5.81
2023-02-11T06:37:39.923Z,5.84
2023-02-11T06:40:06.728Z,5.85
2023-02-11T06:42:33.380Z,5.87
2023-02-11T06:44:59.991Z,5.85
2023-02-11T06:47:26.591Z,5.85
2023-02-11T06:49:53.225Z,5.84
2023-02-11T06:52:19.822Z,5.79
2023-02-11T06:54:46.443Z,5.78
2023-02-11T06:57:13.050Z,5.77
2023-02-11T06:59:39.649Z,5.78
2023-02-11T07:02:06.250Z,5.77
2023-02-11T07:04:32.888Z,5.75
2023-02-11T07:06:59.445Z,5.75
2023-02-11T07:09:26.023Z,5.78
2023-02-11T07:11:52.794Z,5.75
2023-02-11T07:14:19.564Z,5.75
2023-02-11T07:16:46.149Z,5.75
2023-02-11T07:19:12.790Z,5.74
2023-02-11T07:21:39.419Z,5.78
2023-02-11T07:24:11.259Z,5.82
2023-02-11T07:26:38.559Z,5.85
2023-02-11T07:29:05.522Z,5.90
2023-02-11T07:31:32.532Z,5.91
2023-02-11T07:34:01.399Z,5.95
2023-02-11T07:36:29.759Z,5.98
2023-02-11T07:38:56.480Z,5.99
2023-02-11T07:41:24.078Z,5.99
2023-02-11T07:43:51.078Z,6.05
2023-02-11T07:46:23.658Z,6.08
2023-02-11T07:48:50.862Z,6.11
2023-02-11T07:51:23.089Z,6.13
2023-02-11T07:53:50.671Z,6.22
2023-02-11T07:56:18.547Z,6.29
2023-02-11T07:58:45.705Z,6.34
2023-02-11T08:01:16.622Z,6.40
2023-02-11T08:03:43.425Z,6.47
2023-02-11T08:06:15.448Z,6.56
2023-02-11T08:08:42.847Z,6.67
2023-02-11T08:11:20.843Z,6.74
2023-02-11T08:13:47.904Z,6.75
2023-02-11T08:16:35.022Z,6.75
2023-02-11T08:19:06.104Z,6.78
2023-02-11T08:21:32.926Z,6.78
2023-02-11T08:24:02.461Z,6.83
2023-02-11T08:26:31.969Z,6.85
2023-02-11T08:28:58.915Z,6.92
2023-02-11T08:31:29.674Z,7.08
2023-02-11T08:33:58.293Z,7.19
2023-02-11T08:36:29.440Z,7.33
2023-02-11T08:39:08.638Z,7.47
2023-02-11T08:41:43.493Z,7.70
2023-02-11T08:44:10.224Z,7.95
2023-02-11T08:46:36.960Z,8.25
2023-02-11T08:49:03.793Z,8.57
2023-02-11T08:51:31.596Z,8.95
2023-02-11T08:53:58.378Z,9.26
2023-02-11T08:56:25.514Z,9.64
2023-02-11T08:58:53.390Z,9.97
2023-02-11T09:01:25.984Z,10.26
2023-02-11T09:03:53.597Z,10.59
2023-02-11T09:06:22.510Z,10.84
2023-02-11T09:08:51.519Z,11.12
2023-02-11T09:11:20.954Z,11.36
2023-02-11T09:13:47.948Z,11.65
2023-02-11T09:16:23.968Z,11.86
2023-02-11T09:18:51.063Z,12.05
2023-02-11T09:21:18.945Z,12.22
2023-02-11T09:23:47.909Z,12.34
2023-02-11T09:26:19.506Z,12.41
2023-02-11T09:28:47.168Z,12.46
2023-02-11T09:31:17.739Z,12.56
2023-02-11T09:33:49.938Z,12.66
2023-02-11T09:36:20.405Z,12.64
2023-02-11T09:38:47.830Z,12.70
2023-02-11T09:41:43.807Z,12.83
2023-02-11T09:44:22.402Z,12.99
2023-02-11T09:46:58.679Z,13.08
2023-02-11T09:49:35.182Z,13.18
2023-02-11T09:52:12.309Z,13.24
2023-02-11T09:54:55.690Z,13.29
2023-02-11T09:57:28.852Z,13.44
2023-02-11T09:59:57.411Z,13.54
2023-02-11T10:02:30.113Z,13.63
2023-02-11T10:05:21.358Z,13.73
2023-02-11T10:08:09.808Z,13.82
2023-02-11T10:11:00.010Z,13.96
2023-02-11T10:13:36.102Z,14.07
2023-02-11T10:16:18.916Z,14.06
2023-02-11T10:19:19.528Z,14.01
2023-02-11T10:22:19.963Z,14.03
2023-02-11T10:25:00.226Z,14.14
2023-02-11T10:27:35.461Z,14.25
2023-02-11T10:30:09.866Z,14.30
2023-02-11T10:32:46.686Z,14.44
2023-02-11T10:35:21.308Z,14.52
2023-02-11T10:37:48.308Z,14.59
2023-02-11T10:40:18.129Z,14.65
2023-02-11T10:42:49.375Z,14.75
2023-02-11T10:45:22.303Z,14.94
2023-02-11T10:47:48.966Z,15.10
2023-02-11T10:50:31.006Z,15.14
2023-02-11T10:53:13.604Z,15.19
2023-02-11T10:55:55.942Z,15.17
2023-02-11T10:58:36.985Z,15.03
2023-02-11T11:01:08.046Z,14.85
2023-02-11T11:03:47.598Z,14.80
2023-02-11T11:06:14.664Z,14.72
2023-02-11T11:08:46.560Z,14.66
2023-02-11T11:11:16.781Z,14.64
2023-02-11T11:14:03.824Z,14.55
2023-02-11T11:16:32.659Z,14.51
2023-02-11T11:19:08.197Z,14.46
2023-02-11T11:21:37.774Z,14.39
2023-02-11T11:24:04.829Z,14.30
2023-02-11T11:26:42.433Z,14.13
2023-02-11T11:29:39.631Z,14.10
2023-02-11T11:32:15.636Z,13.97
2023-02-11T11:34:48.805Z,13.91
2023-02-11T11:37:33.075Z,14.01
2023-02-11T11:40:30.234Z,14.04
2023-02-11T11:43:15.127Z,14.13
2023-02-11T11:45:59.540Z,14.04
2023-02-11T11:48:37.233Z,13.96
2023-02-11T11:51:11.575Z,13.94
2023-02-11T11:53:50.700Z,14.04
2023-02-11T11:56:21.923Z,14.07
2023-02-11T11:58:50.018Z,14.10
2023-02-11T12:01:35.139Z,14.10
2023-02-11T12:04:19.264Z,14.13
2023-02-11T12:07:01.257Z,14.14
2023-02-11T12:09:50.822Z,14.17
2023-02-11T12:12:35.645Z,14.17
2023-02-11T12:15:20.935Z,14.25
2023-02-11T12:18:14.593Z,14.27
2023-02-11T12:21:12.331Z,14.30
2023-02-11T12:24:05.372Z,14.24
2023-02-11T12:26:35.571Z,14.24
2023-02-11T12:29:08.469Z,14.30
2023-02-11T12:31:44.278Z,14.28
2023-02-11T12:34:44.962Z,14.27
2023-02-11T12:37:58.998Z,14.25
2023-02-11T12:40:40.797Z,14.18
2023-02-11T12:43:16.691Z,14.16
2023-02-11T12:46:07.755Z,14.10
2023-02-11T12:48:59.377Z,14.01
2023-02-11T12:51:55.855Z,14.03
2023-02-11T12:54:44.591Z,14.01
2023-02-11T12:57:20.876Z,13.97
2023-02-11T13:00:25.053Z,13.91
2023-02-11T13:02:54.626Z,13.84
2023-02-11T13:05:33.774Z,13.84
2023-02-11T13:08:13.492Z,13.83
2023-02-11T13:10:48.735Z,13.82
2023-02-11T13:13:23.352Z,13.79
2023-02-11T13:16:08.071Z,13.73
2023-02-11T13:18:58.875Z,13.73
2023-02-11T13:21:57.578Z,13.74
2023-02-11T13:24:50.834Z,13.76
2023-02-11T13:27:23.772Z,13.76
2023-02-11T13:30:10.704Z,13.72
2023-02-11T13:32:55.836Z,13.67
2023-02-11T13:35:40.978Z,13.69
2023-02-11T13:38:23.935Z,13.77
2023-02-11T13:41:02.421Z,13.77
2023-02-11T13:43:30.798Z,13.82
2023-02-11T13:46:03.630Z,13.83
2023-02-11T13:48:33.570Z,13.84
2023-02-11T13:51:07.318Z,13.86
2023-02-11T13:53:55.697Z,13.84
2023-02-11T13:56:33.343Z,13.84
2023-02-11T13:59:02.698Z,13.91
2023-02-11T14:02:19.662Z,13.82
2023-02-11T14:05:27.990Z,13.86
2023-02-11T14:08:28.194Z,13.79
2023-02-11T14:10:59.013Z,13.77
2023-02-11T14:13:37.119Z,13.77
2023-02-11T14:16:10.959Z,13.80
2023-02-11T14:18:50.100Z,13.82
2023-02-11T14:21:30.802Z,13.80
2023-02-11T14:24:05.035Z,13.82
2023-02-11T14:26:42.351Z,13.82
2023-02-11T14:29:34.399Z,13.80
2023-02-11T14:32:28.605Z,13.74
2023-02-11T14:35:24.484Z,13.70
2023-02-11T14:38:14.097Z,13.77
2023-02-11T14:40:40.974Z,13.80
2023-02-11T14:43:19.969Z,13.87
2023-02-11T14:45:51.512Z,13.87
2023-02-11T14:48:20.524Z,13.91
2023-02-11T14:50:54.030Z,13.94
2023-02-11T14:53:26.155Z,13.90
2023-02-11T14:55:54.453Z,13.93
2023-02-11T14:58:22.595Z,13.91
2023-02-11T15:01:09.356Z,13.91
2023-02-11T15:03:39.080Z,13.87
2023-02-11T15:06:21.152Z,13.82
2023-02-11T15:08:58.351Z,13.79
2023-02-11T15:11:26.193Z,13.83
2023-02-11T15:13:55.730Z,13.83
2023-02-11T15:16:27.962Z,13.87
2023-02-11T15:18:58.442Z,13.90
2023-02-11T15:21:31.022Z,13.96
2023-02-11T15:24:24.091Z,13.96
2023-02-11T15:26:58.099Z,13.91
2023-02-11T15:29:26.965Z,13.87
2023-02-11T15:32:25.933Z,13.87
2023-02-11T15:34:54.261Z,13.91
2023-02-11T15:37:27.295Z,13.93
2023-02-11T15:39:54.846Z,13.90
2023-02-11T15:42:31.431Z,13.89
2023-02-11T15:45:11.940Z,13.90
2023-02-11T15:47:39.800Z,13.86
2023-02-11T15:50:06.978Z,13.83
2023-02-11T15:52:34.176Z,13.83
2023-02-11T15:55:02.885Z,13.83
2023-02-11T15:57:29.958Z,13.80
2023-02-11T15:59:57.465Z,13.80
2023-02-11T16:02:36.560Z,13.84
2023-02-11T16:05:09.557Z,13.77
2023-02-11T16:07:47.369Z,13.73
2023-02-11T16:10:33.508Z,13.77
2023-02-11T16:13:06.247Z,13.73
2023-02-11T16:15:56.641Z,13.74
2023-02-11T16:18:38.250Z,13.73
2023-02-11T16:21:07.848Z,13.70
2023-02-11T16:23:42.280Z,13.67
2023-02-11T16:26:32.161Z,13.69
2023-02-11T16:29:15.333Z,13.67
2023-02-11T16:31:47.476Z,13.66
2023-02-11T16:34:20.605Z,13.61
2023-02-11T16:36:48.403Z,13.58
2023-02-11T16:39:16.913Z,13.55
2023-02-11T16:41:44.048Z,13.46
2023-02-11T16:44:10.674Z,13.45
2023-02-11T16:46:37.860Z,13.48
2023-02-11T16:49:17.413Z,13.48
2023-02-11T16:51:47.731Z,13.46
2023-02-11T16:54:16.828Z,13.46
2023-02-11T16:56:43.687Z,13.46
2023-02-11T16:59:10.720Z,13.48
2023-02-11T17:01:39.296Z,13.51
2023-02-11T17:04:07.376Z,13.55
2023-02-11T17:06:35.107Z,13.48
2023-02-11T17:09:01.860Z,13.39
2023-02-11T17:11:28.487Z,13.39
2023-02-11T17:13:55.157Z,13.32
2023-02-11T17:16:24.941Z,13.31
2023-02-11T17:18:51.848Z,13.25
2023-02-11T17:21:18.457Z,13.24
2023-02-11T17:23:46.110Z,13.19
2023-02-11T17:26:12.908Z,13.17
2023-02-11T17:28:39.555Z,13.14
2023-02-11T17:31:09.704Z,13.11
2023-02-11T17:33:37.940Z,13.12
2023-02-11T17:36:09.602Z,13.07
2023-02-11T17:38:37.730Z,12.99
2023-02-11T17:41:05.047Z,12.93
2023-02-11T17:43:32.481Z,12.89
2023-02-11T17:45:59.233Z,12.86
2023-02-11T17:48:26.034Z,12.84
2023-02-11T17:50:52.609Z,12.80
2023-02-11T17:53:19.292Z,12.75
2023-02-11T17:55:45.982Z,12.70
2023-02-11T17:58:12.577Z,12.69
2023-02-11T18:00:39.333Z,12.64
2023-02-11T18:03:05.938Z,12.67
2023-02-11T18:05:37.132Z,12.67
2023-02-11T18:08:05.674Z,12.66
2023-02-11T18:10:33.557Z,12.66
2023-02-11T18:13:01.142Z,12.66
2023-02-11T18:15:27.866Z,12.60
2023-02-11T18:17:55.625Z,12.53
2023-02-11T18:20:22.292Z,12.49
2023-02-11T18:22:48.985Z,12.48
2023-02-11T18:25:16.182Z,12.48
2023-02-11T18:27:43.034Z,12.49
2023-02-11T18:30:15.587Z,12.48
2023-02-11T18:32:42.228Z,12.49
2023-02-11T18:35:14.860Z,12.42
2023-02-11T18:37:42.876Z,12.41
2023-02-11T18:40:10.838Z,12.39
2023-02-11T18:42:37.694Z,12.38
2023-02-11T18:45:11.665Z,12.34
2023-02-11T18:47:38.876Z,12.34
2023-02-11T18:50:07.009Z,12.34
2023-02-11T18:52:34.480Z,12.34
2023-02-11T18:55:01.047Z,12.29
2023-02-11T18:57:27.796Z,12.28
2023-02-11T18:59:54.445Z,12.24
2023-02-11T19:02:21.041Z,12.18
2023-02-11T19:04:47.694Z,12.15
2023-02-11T19:07:14.276Z,12.15
2023-02-11T19:09:40.861Z,12.11
2023-02-11T19:12:08.617Z,12.11
2023-02-11T19:14:36.133Z,12.05
2023-02-11T19:17:06.498Z,12.04
2023-02-11T19:19:35.182Z,12.02
2023-02-11T19:22:03.210Z,11.95
2023-02-11T19:24:30.283Z,11.90
2023-02-11T19:26:59.099Z,11.84
2023-02-11T19:29:26.469Z,11.84
2023-02-11T19:31:53.384Z,11.80
2023-02-11T19:34:21.046Z,11.74
2023-02-11T19:36:49.000Z,11.69
2023-02-11T19:39:15.805Z,11.69
2023-02-11T19:41:43.309Z,11.66
2023-02-11T19:44:09.995Z,11.63
2023-02-11T19:46:38.844Z,11.58
2023-02-11T19:49:05.622Z,11.58
2023-02-11T19:51:39.159Z,11.63
2023-02-11T19:54:07.674Z,11.58
2023-02-11T19:56:34.566Z,11.56
2023-02-11T19:59:02.936Z,11.55
2023-02-11T20:01:29.670Z,11.56
2023-02-11T20:03:57.509Z,11.52
2023-02-11T20:06:27.961Z,11.52
2023-02-11T20:08:58.470Z,11.47
2023-02-11T20:11:26.976Z,11.46
2023-02-11T20:13:54.265Z,11.44
2023-02-11T20:16:27.033Z,11.43
2023-02-11T20:19:00.765Z,11.40
2023-02-11T20:21:30.910Z,11.36
2023-02-11T20:23:58.551Z,11.35
2023-02-11T20:26:30.475Z,11.32
2023-02-11T20:29:00.994Z,11.26
2023-02-11T20:31:28.745Z,11.24
2023-02-11T20:33:56.617Z,11.19
2023-02-11T20:36:26.170Z,11.16
2023-02-11T20:38:54.287Z,11.14
2023-02-11T20:41:28.034Z,11.15
2023-02-11T20:43:56.084Z,11.11
2023-02-11T20:46:25.306Z,11.07
2023-02-11T20:48:53.415Z,11.07
2023-02-11T20:51:22.503Z,11.07
2023-02-11T20:53:51.247Z,11.03
2023-02-11T20:56:29.914Z,11.01
2023-02-11T20:59:00.934Z,10.97
2023-02-11T21:01:33.609Z,10.97
2023-02-11T21:04:06.377Z,10.95
2023-02-11T21:06:37.228Z,10.91
2023-02-11T21:09:05.940Z,10.87
2023-02-11T21:11:32.607Z,10.83
2023-02-11T21:13:59.987Z,10.78
2023-02-11T21:16:27.008Z,10.77
2023-02-11T21:18:55.397Z,10.78
2023-02-11T21:21:22.160Z,10.76
2023-02-11T21:23:48.779Z,10.73
2023-02-11T21:26:17.205Z,10.70
2023-02-11T21:28:44.010Z,10.61
2023-02-11T21:31:23.098Z,10.53
2023-02-11T21:33:50.870Z,10.46
2023-02-11T21:36:17.920Z,10.38
2023-02-11T21:38:44.981Z,10.33
2023-02-11T21:41:12.438Z,10.26
2023-02-11T21:43:39.075Z,10.25
2023-02-11T21:46:10.829Z,10.21
2023-02-11T21:48:37.860Z,10.19
2023-02-11T21:51:07.141Z,10.15
2023-02-11T21:53:34.409Z,10.09
2023-02-11T21:56:15.694Z,10.02
2023-02-11T21:58:42.383Z,9.99
2023-02-11T22:01:17.777Z,9.98
2023-02-11T22:03:45.906Z,9.98
2023-02-11T22:06:14.936Z,9.98
2023-02-11T22:08:41.969Z,9.98
2023-02-11T22:11:11.190Z,10.02
2023-02-11T22:13:38.310Z,10.02
2023-02-11T22:16:08.001Z,10.05
2023-02-11T22:18:34.704Z,10.04
2023-02-11T22:21:07.253Z,9.99
2023-02-11T22:23:35.004Z,9.99
2023-02-11T22:26:14.738Z,10.05
2023-02-11T22:28:41.703Z,10.11
2023-02-11T22:31:14.116Z,10.19
2023-02-11T22:33:41.048Z,10.26
2023-02-11T22:36:12.286Z,10.33
2023-02-11T22:38:39.032Z,10.38
2023-02-11T22:41:08.505Z,10.40
2023-02-11T22:43:36.228Z,10.42
2023-02-11T22:46:04.736Z,10.42
2023-02-11T22:48:32.163Z,10.40
2023-02-11T22:51:05.299Z,10.36
2023-02-11T22:53:32.004Z,10.39
2023-02-11T22:56:05.606Z,10.42
2023-02-11T22:58:32.280Z,10.40
2023-02-11T23:00:59.150Z,10.43
2023-02-11T23:03:26.306Z,10.43
2023-02-11T23:05:53.100Z,10.39
2023-02-11T23:08:20.643Z,10.36
2023-02-11T23:10:47.297Z,10.33
2023-02-11T23:13:13.952Z,10.31
2023-02-11T23:15:41.706Z,10.23
2023-02-11T23:18:09.201Z,10.22
2023-02-11T23:20:37.348Z,10.16
2023-02-11T23:23:04.318Z,10.15
2023-02-11T23:25:31.639Z,10.11
2023-02-11T23:27:58.919Z,10.02
2023-02-11T23:30:25.982Z,9.94
2023-02-11T23:32:52.914Z,9.85
2023-02-11T23:35:23.208Z,9.78
2023-02-11T23:37:51.378Z,9.74
2023-02-11T23:40:19.240Z,9.69
2023-02-11T23:42:46.135Z,9.67
2023-02-11T23:45:12.751Z,9.66
2023-02-11T23:47:39.978Z,9.66
2023-02-11T23:50:08.444Z,9.63
2023-02-11T23:52:35.495Z,9.69
2023-02-11T23:55:02.148Z,9.67
2023-02-11T23:57:28.745Z,9.67
2023-02-11T23:59:55.385Z,9.66
